Five Points, North Carolina
Current Conditions -  °F | °C
As of 11:51 PM on Saturday 20 Dec 2014 (Local Time) from KRDU Reporting Station
Haze Haze  
Wind Chill: 38°   Ceiling: 3000
Heat Index: 38°   Visibility: 4mi
Dew Point: 34°   Wind: 0mph
Humidity: 86%   Direction: NA
Pressure: 30.28"   Gusts: NA
Location:  35.8084°N, 78.6471°W
Report Text: KRDU 210451Z 00000KT 4SM BR OVC030 03/01 A3028 RMK AO2 SLP255 T00330011 400391006
Loading
Personal Weather Stations






























Interactive Weather Map New forecast layout! Learn more

10-Day Weather Forecast

Advertisements
Track Severe Weather on mobile